Bell Ranch, New Mexico
Current Conditions -  °F | °C
As of 5:53 PM on Friday 24 Oct 2014 (Local Time) from KTCC Reporting Station
Clear Clear  
Wind Chill: 79°   Ceiling: Unl
Heat Index: 79°   Visibility: 10mi
Dew Point: 37°   Wind: 9mph
Humidity: 22%   Direction: 200°SSW
Pressure: 30.09"   Gusts: NA
Location:  35.59°N, 104.11°W
Report Text: KTCC 242353Z AUTO 20008KT 10SM CLR 26/03 A3009 RMK AO2 SLP145 T02610028 10317 20244 53001
Loading
Personal Weather Stations






























Interactive Weather Map
Tropical Storm Tracking
New forecast layout! Learn more

10-Day Weather Forecast

Advertisements
Track Severe Weather on mobile